Terminal Aerodrome Forecast
Issued by NWS Sioux Falls, SD

Home | Current Version | Previous Version | Graphics & Text | Print | Product List | Glossary On
Versions: 1 2 3 4 5 6 7 8 9 10 11 12 13
000
FTUS43 KFSD 272327
TAFHON
TAF
KHON 272327Z 2800/2824 11008KT P6SM SHRA SCT040 BKN120
      TEMPO 2802/2806 BKN040
     FM280600 10008KT P6SM BKN120
     FM280900 04008KT 5SM BR OVC015
     FM281500 02007KT P6SM SCT025
     FM281800 03010KT P6SM BKN035=

USA.gov is the U.S. government's official web portal to all federal, state and local government web resources and services.